sensor_id;sensor_type;location;lat;lon;timestamp;P1;durP1;ratioP1;P2;durP2;ratioP2
3819;SDS011;1925;51.356;9.530;2022-10-19T00:01:06;11.32;;;3.60;;
3819;SDS011;1925;51.356;9.530;2022-10-19T00:03:33;14.50;;;4.25;;
3819;SDS011;1925;51.356;9.530;2022-10-19T00:05:59;5.30;;;3.10;;
3819;SDS011;1925;51.356;9.530;2022-10-19T00:08:26;6.25;;;3.38;;
3819;SDS011;1925;51.356;9.530;2022-10-19T00:10:52;17.38;;;4.60;;
3819;SDS011;1925;51.356;9.530;2022-10-19T00:13:18;11.07;;;4.57;;
3819;SDS011;1925;51.356;9.530;2022-10-19T00:15:44;11.17;;;3.40;;
3819;SDS011;1925;51.356;9.530;2022-10-19T00:18:10;7.30;;;3.00;;
3819;SDS011;1925;51.356;9.530;2022-10-19T00:20:35;45.77;;;6.67;;
3819;SDS011;1925;51.356;9.530;2022-10-19T00:23:02;17.57;;;3.37;;
3819;SDS011;1925;51.356;9.530;2022-10-19T00:25:28;4.32;;;2.70;;
3819;SDS011;1925;51.356;9.530;2022-10-19T00:27:54;10.25;;;3.80;;
3819;SDS011;1925;51.356;9.530;2022-10-19T00:30:20;9.90;;;4.00;;
3819;SDS011;1925;51.356;9.530;2022-10-19T00:32:46;9.10;;;3.10;;
3819;SDS011;1925;51.356;9.530;2022-10-19T00:35:12;8.95;;;3.30;;
3819;SDS011;1925;51.356;9.530;2022-10-19T00:37:38;3.40;;;2.73;;
3819;SDS011;1925;51.356;9.530;2022-10-19T00:40:04;3.70;;;3.37;;
3819;SDS011;1925;51.356;9.530;2022-10-19T00:42:30;4.55;;;3.50;;
3819;SDS011;1925;51.356;9.530;2022-10-19T00:44:57;6.93;;;3.60;;
3819;SDS011;1925;51.356;9.530;2022-10-19T00:47:23;13.93;;;4.00;;
3819;SDS011;1925;51.356;9.530;2022-10-19T00:49:49;33.75;;;6.10;;
3819;SDS011;1925;51.356;9.530;2022-10-19T00:52:17;14.90;;;5.40;;
3819;SDS011;1925;51.356;9.530;2022-10-19T00:54:44;9.18;;;3.88;;
3819;SDS011;1925;51.356;9.530;2022-10-19T00:57:12;7.10;;;3.63;;
3819;SDS011;1925;51.356;9.530;2022-10-19T00:59:38;40.33;;;7.05;;
3819;SDS011;1925;51.356;9.530;2022-10-19T01:02:05;10.85;;;4.68;;
3819;SDS011;1925;51.356;9.530;2022-10-19T01:04:33;13.35;;;5.53;;
3819;SDS011;1925;51.356;9.530;2022-10-19T01:06:59;9.75;;;4.75;;
3819;SDS011;1925;51.356;9.530;2022-10-19T01:09:26;7.05;;;4.20;;
3819;SDS011;1925;51.356;9.530;2022-10-19T01:11:57;5.40;;;3.13;;
3819;SDS011;1925;51.356;9.530;2022-10-19T01:22:25;17.77;;;4.45;;
3819;SDS011;1925;51.356;9.530;2022-10-19T01:27:36;8.85;;;3.92;;
3819;SDS011;1925;51.356;9.530;2022-10-19T01:30:05;4.07;;;3.22;;
3819;SDS011;1925;51.356;9.530;2022-10-19T01:32:45;7.85;;;4.05;;
3819;SDS011;1925;51.356;9.530;2022-10-19T01:37:47;10.90;;;4.13;;
3819;SDS011;1925;51.356;9.530;2022-10-19T01:40:30;24.65;;;4.57;;
3819;SDS011;1925;51.356;9.530;2022-10-19T01:43:00;7.60;;;4.40;;
3819;SDS011;1925;51.356;9.530;2022-10-19T01:45:29;10.20;;;4.20;;
3819;SDS011;1925;51.356;9.530;2022-10-19T01:47:58;6.32;;;3.97;;
3819;SDS011;1925;51.356;9.530;2022-10-19T01:50:28;11.52;;;4.18;;
3819;SDS011;1925;51.356;9.530;2022-10-19T01:52:56;20.70;;;5.43;;
3819;SDS011;1925;51.356;9.530;2022-10-19T01:55:23;6.05;;;4.57;;
3819;SDS011;1925;51.356;9.530;2022-10-19T01:57:56;6.57;;;5.15;;
3819;SDS011;1925;51.356;9.530;2022-10-19T02:00:23;11.57;;;5.55;;
3819;SDS011;1925;51.356;9.530;2022-10-19T02:02:51;11.50;;;4.60;;
3819;SDS011;1925;51.356;9.530;2022-10-19T02:05:19;13.05;;;5.20;;
3819;SDS011;1925;51.356;9.530;2022-10-19T02:07:48;6.03;;;4.30;;
3819;SDS011;1925;51.356;9.530;2022-10-19T02:10:15;4.85;;;4.35;;
3819;SDS011;1925;51.356;9.530;2022-10-19T02:12:41;5.07;;;4.25;;
3819;SDS011;1925;51.356;9.530;2022-10-19T02:15:09;6.90;;;4.75;;
3819;SDS011;1925;51.356;9.530;2022-10-19T02:17:37;5.47;;;4.15;;
3819;SDS011;1925;51.356;9.530;2022-10-19T02:20:04;3.85;;;3.42;;
3819;SDS011;1925;51.356;9.530;2022-10-19T02:22:30;11.70;;;4.45;;
3819;SDS011;1925;51.356;9.530;2022-10-19T02:24:56;9.23;;;5.50;;
3819;SDS011;1925;51.356;9.530;2022-10-19T02:27:22;14.25;;;3.60;;
3819;SDS011;1925;51.356;9.530;2022-10-19T02:29:48;7.50;;;3.78;;
3819;SDS011;1925;51.356;9.530;2022-10-19T02:32:14;5.28;;;4.28;;
3819;SDS011;1925;51.356;9.530;2022-10-19T02:34:40;10.88;;;4.38;;
3819;SDS011;1925;51.356;9.530;2022-10-19T02:37:06;8.07;;;3.97;;
3819;SDS011;1925;51.356;9.530;2022-10-19T02:39:32;9.25;;;4.25;;
3819;SDS011;1925;51.356;9.530;2022-10-19T02:42:00;10.00;;;5.07;;
3819;SDS011;1925;51.356;9.530;2022-10-19T02:44:30;4.45;;;3.40;;
3819;SDS011;1925;51.356;9.530;2022-10-19T02:47:12;4.15;;;3.42;;
3819;SDS011;1925;51.356;9.530;2022-10-19T02:49:39;4.15;;;3.75;;
3819;SDS011;1925;51.356;9.530;2022-10-19T02:52:06;6.80;;;3.55;;
3819;SDS011;1925;51.356;9.530;2022-10-19T02:54:33;4.80;;;3.88;;
3819;SDS011;1925;51.356;9.530;2022-10-19T02:56:59;6.95;;;4.22;;
3819;SDS011;1925;51.356;9.530;2022-10-19T02:59:25;7.57;;;3.85;;
3819;SDS011;1925;51.356;9.530;2022-10-19T03:01:51;12.35;;;4.07;;
3819;SDS011;1925;51.356;9.530;2022-10-19T03:04:18;6.70;;;4.20;;
3819;SDS011;1925;51.356;9.530;2022-10-19T03:06:44;4.80;;;3.85;;
3819;SDS011;1925;51.356;9.530;2022-10-19T03:09:10;6.07;;;4.30;;
3819;SDS011;1925;51.356;9.530;2022-10-19T03:11:36;4.20;;;3.80;;
3819;SDS011;1925;51.356;9.530;2022-10-19T03:14:02;8.03;;;4.57;;
3819;SDS011;1925;51.356;9.530;2022-10-19T03:16:28;19.97;;;4.40;;
3819;SDS011;1925;51.356;9.530;2022-10-19T03:18:54;7.88;;;4.00;;
3819;SDS011;1925;51.356;9.530;2022-10-19T03:21:20;3.60;;;3.30;;
3819;SDS011;1925;51.356;9.530;2022-10-19T03:23:46;16.65;;;4.45;;
3819;SDS011;1925;51.356;9.530;2022-10-19T03:26:14;17.07;;;3.90;;
3819;SDS011;1925;51.356;9.530;2022-10-19T03:28:40;3.67;;;3.30;;
3819;SDS011;1925;51.356;9.530;2022-10-19T03:31:06;4.63;;;4.05;;
3819;SDS011;1925;51.356;9.530;2022-10-19T03:33:32;22.50;;;4.07;;
3819;SDS011;1925;51.356;9.530;2022-10-19T03:38:43;6.55;;;4.45;;
3819;SDS011;1925;51.356;9.530;2022-10-19T03:41:09;3.90;;;3.50;;
3819;SDS011;1925;51.356;9.530;2022-10-19T03:43:35;5.47;;;3.95;;
3819;SDS011;1925;51.356;9.530;2022-10-19T03:46:01;6.03;;;3.40;;
3819;SDS011;1925;51.356;9.530;2022-10-19T03:48:27;8.98;;;4.13;;
3819;SDS011;1925;51.356;9.530;2022-10-19T03:51:00;4.50;;;3.63;;
3819;SDS011;1925;51.356;9.530;2022-10-19T03:53:26;4.05;;;3.53;;
3819;SDS011;1925;51.356;9.530;2022-10-19T03:55:59;4.28;;;3.88;;
3819;SDS011;1925;51.356;9.530;2022-10-19T03:58:25;7.53;;;4.28;;
3819;SDS011;1925;51.356;9.530;2022-10-19T04:00:51;4.37;;;3.63;;
3819;SDS011;1925;51.356;9.530;2022-10-19T04:03:17;5.60;;;4.43;;
3819;SDS011;1925;51.356;9.530;2022-10-19T04:05:43;9.20;;;4.60;;
3819;SDS011;1925;51.356;9.530;2022-10-19T04:08:09;4.33;;;3.50;;
3819;SDS011;1925;51.356;9.530;2022-10-19T04:10:35;6.13;;;4.37;;
3819;SDS011;1925;51.356;9.530;2022-10-19T04:13:01;6.70;;;4.67;;
3819;SDS011;1925;51.356;9.530;2022-10-19T04:15:27;4.70;;;4.20;;
3819;SDS011;1925;51.356;9.530;2022-10-19T04:17:53;8.30;;;5.07;;
3819;SDS011;1925;51.356;9.530;2022-10-19T04:20:19;5.30;;;4.40;;
3819;SDS011;1925;51.356;9.530;2022-10-19T04:22:45;5.00;;;4.10;;
3819;SDS011;1925;51.356;9.530;2022-10-19T04:25:11;6.50;;;4.40;;
3819;SDS011;1925;51.356;9.530;2022-10-19T04:27:37;4.57;;;4.07;;
3819;SDS011;1925;51.356;9.530;2022-10-19T04:30:03;4.90;;;3.90;;
3819;SDS011;1925;51.356;9.530;2022-10-19T04:32:29;4.35;;;3.95;;
3819;SDS011;1925;51.356;9.530;2022-10-19T04:34:55;5.10;;;4.60;;
3819;SDS011;1925;51.356;9.530;2022-10-19T04:37:21;35.85;;;6.65;;
3819;SDS011;1925;51.356;9.530;2022-10-19T04:39:47;14.57;;;5.57;;
3819;SDS011;1925;51.356;9.530;2022-10-19T04:42:13;6.82;;;4.75;;
3819;SDS011;1925;51.356;9.530;2022-10-19T04:44:39;4.83;;;4.33;;
3819;SDS011;1925;51.356;9.530;2022-10-19T04:47:05;5.03;;;4.37;;
3819;SDS011;1925;51.356;9.530;2022-10-19T04:49:31;4.97;;;4.47;;
3819;SDS011;1925;51.356;9.530;2022-10-19T04:51:57;6.73;;;4.97;;
3819;SDS011;1925;51.356;9.530;2022-10-19T04:54:23;4.70;;;4.13;;
3819;SDS011;1925;51.356;9.530;2022-10-19T04:56:49;4.38;;;3.95;;
3819;SDS011;1925;51.356;9.530;2022-10-19T04:59:17;13.00;;;6.00;;
3819;SDS011;1925;51.356;9.530;2022-10-19T05:01:43;5.18;;;4.68;;
3819;SDS011;1925;51.356;9.530;2022-10-19T05:04:09;6.27;;;5.20;;
3819;SDS011;1925;51.356;9.530;2022-10-19T05:06:35;10.20;;;5.22;;
3819;SDS011;1925;51.356;9.530;2022-10-19T05:09:02;8.07;;;5.93;;
3819;SDS011;1925;51.356;9.530;2022-10-19T05:11:28;7.85;;;4.85;;
3819;SDS011;1925;51.356;9.530;2022-10-19T05:13:54;8.45;;;6.03;;
3819;SDS011;1925;51.356;9.530;2022-10-19T05:16:21;8.00;;;6.20;;
3819;SDS011;1925;51.356;9.530;2022-10-19T05:18:48;7.00;;;6.05;;
3819;SDS011;1925;51.356;9.530;2022-10-19T05:21:14;13.30;;;6.53;;
3819;SDS011;1925;51.356;9.530;2022-10-19T05:23:41;6.35;;;5.35;;
3819;SDS011;1925;51.356;9.530;2022-10-19T05:26:14;18.25;;;5.95;;
3819;SDS011;1925;51.356;9.530;2022-10-19T05:28:41;6.57;;;4.85;;
3819;SDS011;1925;51.356;9.530;2022-10-19T05:31:11;7.30;;;5.43;;
3819;SDS011;1925;51.356;9.530;2022-10-19T05:33:39;6.70;;;4.80;;
3819;SDS011;1925;51.356;9.530;2022-10-19T05:36:09;11.40;;;5.65;;
3819;SDS011;1925;51.356;9.530;2022-10-19T05:38:35;6.25;;;5.63;;
3819;SDS011;1925;51.356;9.530;2022-10-19T05:41:01;6.27;;;4.90;;
3819;SDS011;1925;51.356;9.530;2022-10-19T05:43:27;7.95;;;5.70;;
3819;SDS011;1925;51.356;9.530;2022-10-19T05:45:53;13.30;;;6.27;;
3819;SDS011;1925;51.356;9.530;2022-10-19T05:48:19;8.02;;;6.10;;
3819;SDS011;1925;51.356;9.530;2022-10-19T05:50:52;9.60;;;6.10;;
3819;SDS011;1925;51.356;9.530;2022-10-19T05:53:18;12.57;;;7.57;;
3819;SDS011;1925;51.356;9.530;2022-10-19T05:55:44;10.23;;;7.95;;
3819;SDS011;1925;51.356;9.530;2022-10-19T05:58:10;7.40;;;6.60;;
3819;SDS011;1925;51.356;9.530;2022-10-19T06:00:36;6.30;;;5.70;;
3819;SDS011;1925;51.356;9.530;2022-10-19T06:03:02;6.90;;;6.20;;
3819;SDS011;1925;51.356;9.530;2022-10-19T06:05:28;9.03;;;5.17;;
3819;SDS011;1925;51.356;9.530;2022-10-19T06:07:54;8.50;;;4.60;;
3819;SDS011;1925;51.356;9.530;2022-10-19T06:10:20;8.57;;;5.43;;
3819;SDS011;1925;51.356;9.530;2022-10-19T06:12:46;6.18;;;5.57;;
3819;SDS011;1925;51.356;9.530;2022-10-19T06:15:12;7.97;;;6.20;;
3819;SDS011;1925;51.356;9.530;2022-10-19T06:17:38;9.25;;;6.07;;
3819;SDS011;1925;51.356;9.530;2022-10-19T06:20:04;7.73;;;5.20;;
3819;SDS011;1925;51.356;9.530;2022-10-19T06:22:31;7.72;;;4.22;;
3819;SDS011;1925;51.356;9.530;2022-10-19T06:24:56;11.03;;;5.43;;
3819;SDS011;1925;51.356;9.530;2022-10-19T06:27:22;7.87;;;5.40;;
3819;SDS011;1925;51.356;9.530;2022-10-19T06:29:48;5.90;;;5.37;;
3819;SDS011;1925;51.356;9.530;2022-10-19T06:32:14;5.37;;;4.70;;
3819;SDS011;1925;51.356;9.530;2022-10-19T06:34:40;5.45;;;4.95;;
3819;SDS011;1925;51.356;9.530;2022-10-19T06:37:07;5.05;;;4.55;;
3819;SDS011;1925;51.356;9.530;2022-10-19T06:39:33;11.77;;;6.38;;
3819;SDS011;1925;51.356;9.530;2022-10-19T06:41:59;7.65;;;5.40;;
3819;SDS011;1925;51.356;9.530;2022-10-19T06:44:25;5.10;;;4.40;;
3819;SDS011;1925;51.356;9.530;2022-10-19T06:46:51;5.25;;;4.75;;
3819;SDS011;1925;51.356;9.530;2022-10-19T06:49:17;6.87;;;4.63;;
3819;SDS011;1925;51.356;9.530;2022-10-19T06:51:43;5.03;;;4.53;;
3819;SDS011;1925;51.356;9.530;2022-10-19T06:54:09;4.55;;;3.75;;
3819;SDS011;1925;51.356;9.530;2022-10-19T06:56:35;6.22;;;4.85;;
3819;SDS011;1925;51.356;9.530;2022-10-19T06:59:01;7.27;;;5.17;;
3819;SDS011;1925;51.356;9.530;2022-10-19T07:01:27;5.90;;;4.85;;
3819;SDS011;1925;51.356;9.530;2022-10-19T07:03:53;6.10;;;5.50;;
3819;SDS011;1925;51.356;9.530;2022-10-19T07:06:20;5.28;;;4.75;;
3819;SDS011;1925;51.356;9.530;2022-10-19T07:08:46;5.90;;;4.72;;
3819;SDS011;1925;51.356;9.530;2022-10-19T07:11:16;4.55;;;4.15;;
3819;SDS011;1925;51.356;9.530;2022-10-19T07:13:42;5.22;;;4.18;;
3819;SDS011;1925;51.356;9.530;2022-10-19T07:16:13;4.80;;;4.30;;
3819;SDS011;1925;51.356;9.530;2022-10-19T07:18:40;5.38;;;4.88;;
3819;SDS011;1925;51.356;9.530;2022-10-19T07:21:07;4.38;;;3.95;;
3819;SDS011;1925;51.356;9.530;2022-10-19T07:23:34;6.38;;;3.88;;
3819;SDS011;1925;51.356;9.530;2022-10-19T07:26:05;4.30;;;3.55;;
3819;SDS011;1925;51.356;9.530;2022-10-19T07:28:31;7.63;;;5.32;;
3819;SDS011;1925;51.356;9.530;2022-10-19T07:30:57;5.43;;;4.57;;
3819;SDS011;1925;51.356;9.530;2022-10-19T07:33:23;6.78;;;3.95;;
3819;SDS011;1925;51.356;9.530;2022-10-19T07:35:49;6.40;;;3.95;;
3819;SDS011;1925;51.356;9.530;2022-10-19T07:38:15;5.17;;;3.93;;
3819;SDS011;1925;51.356;9.530;2022-10-19T07:40:42;8.85;;;5.95;;
3819;SDS011;1925;51.356;9.530;2022-10-19T07:43:07;8.80;;;5.57;;
3819;SDS011;1925;51.356;9.530;2022-10-19T07:45:33;6.13;;;5.53;;
3819;SDS011;1925;51.356;9.530;2022-10-19T07:47:59;10.00;;;7.23;;
3819;SDS011;1925;51.356;9.530;2022-10-19T07:50:25;6.63;;;5.90;;
3819;SDS011;1925;51.356;9.530;2022-10-19T07:52:52;8.50;;;6.13;;
3819;SDS011;1925;51.356;9.530;2022-10-19T07:55:18;7.32;;;6.40;;
3819;SDS011;1925;51.356;9.530;2022-10-19T07:57:47;8.77;;;6.03;;
3819;SDS011;1925;51.356;9.530;2022-10-19T08:00:14;13.18;;;6.93;;
3819;SDS011;1925;51.356;9.530;2022-10-19T08:02:40;8.15;;;6.20;;
3819;SDS011;1925;51.356;9.530;2022-10-19T08:05:07;8.52;;;6.38;;
3819;SDS011;1925;51.356;9.530;2022-10-19T08:07:33;7.90;;;6.43;;
3819;SDS011;1925;51.356;9.530;2022-10-19T08:09:59;9.27;;;6.68;;
3819;SDS011;1925;51.356;9.530;2022-10-19T08:12:25;8.77;;;6.65;;
3819;SDS011;1925;51.356;9.530;2022-10-19T08:14:51;8.50;;;6.65;;
3819;SDS011;1925;51.356;9.530;2022-10-19T08:17:17;6.97;;;5.82;;
3819;SDS011;1925;51.356;9.530;2022-10-19T08:19:44;7.90;;;6.20;;
3819;SDS011;1925;51.356;9.530;2022-10-19T08:22:11;8.32;;;5.97;;
3819;SDS011;1925;51.356;9.530;2022-10-19T08:24:37;7.63;;;5.55;;
3819;SDS011;1925;51.356;9.530;2022-10-19T08:27:03;7.80;;;6.65;;
3819;SDS011;1925;51.356;9.530;2022-10-19T08:29:29;6.07;;;5.18;;
3819;SDS011;1925;51.356;9.530;2022-10-19T08:31:55;9.57;;;7.85;;
3819;SDS011;1925;51.356;9.530;2022-10-19T08:34:21;7.97;;;7.13;;
3819;SDS011;1925;51.356;9.530;2022-10-19T08:36:47;10.40;;;6.93;;
3819;SDS011;1925;51.356;9.530;2022-10-19T08:39:13;11.07;;;8.17;;
3819;SDS011;1925;51.356;9.530;2022-10-19T08:49:19;8.77;;;6.95;;
3819;SDS011;1925;51.356;9.530;2022-10-19T08:51:50;7.22;;;6.57;;
3819;SDS011;1925;51.356;9.530;2022-10-19T08:54:18;7.60;;;6.43;;
3819;SDS011;1925;51.356;9.530;2022-10-19T08:56:50;9.15;;;7.18;;
3819;SDS011;1925;51.356;9.530;2022-10-19T09:01:54;7.63;;;5.57;;
3819;SDS011;1925;51.356;9.530;2022-10-19T09:04:26;7.73;;;5.77;;
3819;SDS011;1925;51.356;9.530;2022-10-19T09:07:38;5.47;;;4.97;;
3819;SDS011;1925;51.356;9.530;2022-10-19T09:09:43;8.33;;;4.63;;
3819;SDS011;1925;51.356;9.530;2022-10-19T09:12:11;6.13;;;4.30;;
3819;SDS011;1925;51.356;9.530;2022-10-19T09:14:55;8.70;;;6.53;;
3819;SDS011;1925;51.356;9.530;2022-10-19T09:17:22;4.87;;;3.90;;
3819;SDS011;1925;51.356;9.530;2022-10-19T09:19:49;4.43;;;3.30;;
3819;SDS011;1925;51.356;9.530;2022-10-19T09:22:18;11.00;;;5.33;;
3819;SDS011;1925;51.356;9.530;2022-10-19T09:24:51;7.30;;;5.30;;
3819;SDS011;1925;51.356;9.530;2022-10-19T09:29:48;8.30;;;4.00;;
3819;SDS011;1925;51.356;9.530;2022-10-19T09:32:19;5.90;;;3.90;;
3819;SDS011;1925;51.356;9.530;2022-10-19T09:34:50;6.50;;;4.17;;
3819;SDS011;1925;51.356;9.530;2022-10-19T09:37:17;4.33;;;3.90;;
3819;SDS011;1925;51.356;9.530;2022-10-19T09:39:44;5.37;;;4.83;;
3819;SDS011;1925;51.356;9.530;2022-10-19T09:44:39;4.67;;;3.60;;
3819;SDS011;1925;51.356;9.530;2022-10-19T09:49:44;4.27;;;2.40;;
3819;SDS011;1925;51.356;9.530;2022-10-19T09:52:27;3.80;;;2.35;;
3819;SDS011;1925;51.356;9.530;2022-10-19T09:55:16;3.15;;;2.17;;
3819;SDS011;1925;51.356;9.530;2022-10-19T09:57:44;3.80;;;1.97;;
3819;SDS011;1925;51.356;9.530;2022-10-19T10:02:47;3.08;;;1.20;;
3819;SDS011;1925;51.356;9.530;2022-10-19T10:05:13;2.08;;;1.17;;
3819;SDS011;1925;51.356;9.530;2022-10-19T10:07:39;2.13;;;1.20;;
3819;SDS011;1925;51.356;9.530;2022-10-19T10:13:04;2.60;;;1.50;;
3819;SDS011;1925;51.356;9.530;2022-10-19T10:15:43;1.73;;;1.07;;
3819;SDS011;1925;51.356;9.530;2022-10-19T10:18:13;4.07;;;0.70;;
3819;SDS011;1925;51.356;9.530;2022-10-19T10:20:54;4.38;;;0.80;;
3819;SDS011;1925;51.356;9.530;2022-10-19T10:23:24;2.25;;;0.90;;
3819;SDS011;1925;51.356;9.530;2022-10-19T10:25:53;1.25;;;0.70;;
3819;SDS011;1925;51.356;9.530;2022-10-19T10:28:20;1.93;;;0.50;;
3819;SDS011;1925;51.356;9.530;2022-10-19T10:30:47;1.13;;;0.60;;
3819;SDS011;1925;51.356;9.530;2022-10-19T10:33:21;1.67;;;0.50;;
3819;SDS011;1925;51.356;9.530;2022-10-19T10:35:50;1.98;;;0.75;;
3819;SDS011;1925;51.356;9.530;2022-10-19T10:38:24;5.75;;;0.50;;
3819;SDS011;1925;51.356;9.530;2022-10-19T10:40:51;2.80;;;0.60;;
3819;SDS011;1925;51.356;9.530;2022-10-19T10:43:18;3.17;;;0.63;;
3819;SDS011;1925;51.356;9.530;2022-10-19T10:45:46;0.70;;;0.50;;
3819;SDS011;1925;51.356;9.530;2022-10-19T10:48:58;4.23;;;0.80;;
3819;SDS011;1925;51.356;9.530;2022-10-19T10:50:59;2.13;;;0.70;;
3819;SDS011;1925;51.356;9.530;2022-10-19T10:56:02;2.60;;;0.60;;
3819;SDS011;1925;51.356;9.530;2022-10-19T11:01:01;2.60;;;0.80;;
3819;SDS011;1925;51.356;9.530;2022-10-19T11:03:29;3.03;;;0.60;;
3819;SDS011;1925;51.356;9.530;2022-10-19T11:05:57;1.53;;;1.00;;
3819;SDS011;1925;51.356;9.530;2022-10-19T11:11:07;0.70;;;0.50;;
3819;SDS011;1925;51.356;9.530;2022-10-19T11:16:16;1.10;;;0.70;;
3819;SDS011;1925;51.356;9.530;2022-10-19T11:18:45;1.40;;;1.00;;
3819;SDS011;1925;51.356;9.530;2022-10-19T11:21:23;1.40;;;0.80;;
3819;SDS011;1925;51.356;9.530;2022-10-19T11:31:35;0.70;;;0.60;;
3819;SDS011;1925;51.356;9.530;2022-10-19T11:34:06;0.80;;;0.70;;
3819;SDS011;1925;51.356;9.530;2022-10-19T11:36:51;2.97;;;2.50;;
3819;SDS011;1925;51.356;9.530;2022-10-19T11:47:39;0.90;;;0.70;;
3819;SDS011;1925;51.356;9.530;2022-10-19T12:06:35;1.40;;;1.03;;
3819;SDS011;1925;51.356;9.530;2022-10-19T12:13:56;5.03;;;1.63;;
3819;SDS011;1925;51.356;9.530;2022-10-19T12:16:26;1.77;;;0.80;;
3819;SDS011;1925;51.356;9.530;2022-10-19T12:18:56;2.70;;;1.10;;
3819;SDS011;1925;51.356;9.530;2022-10-19T12:21:26;4.60;;;1.03;;
3819;SDS011;1925;51.356;9.530;2022-10-19T12:23:56;2.80;;;1.47;;
3819;SDS011;1925;51.356;9.530;2022-10-19T12:26:22;1.63;;;1.10;;
3819;SDS011;1925;51.356;9.530;2022-10-19T12:28:51;4.07;;;1.30;;
3819;SDS011;1925;51.356;9.530;2022-10-19T12:31:19;3.10;;;1.00;;
3819;SDS011;1925;51.356;9.530;2022-10-19T12:41:31;2.70;;;1.27;;
3819;SDS011;1925;51.356;9.530;2022-10-19T12:46:46;2.23;;;0.70;;
3819;SDS011;1925;51.356;9.530;2022-10-19T12:51:53;1.73;;;1.07;;
3819;SDS011;1925;51.356;9.530;2022-10-19T12:54:23;5.00;;;0.90;;
3819;SDS011;1925;51.356;9.530;2022-10-19T12:56:50;4.67;;;1.10;;
3819;SDS011;1925;51.356;9.530;2022-10-19T12:59:24;2.90;;;1.17;;
3819;SDS011;1925;51.356;9.530;2022-10-19T13:01:51;1.40;;;1.10;;
3819;SDS011;1925;51.356;9.530;2022-10-19T13:06:44;6.90;;;1.60;;
3819;SDS011;1925;51.356;9.530;2022-10-19T13:27:50;1.60;;;0.90;;
3819;SDS011;1925;51.356;9.530;2022-10-19T13:41:02;6.97;;;1.20;;
3819;SDS011;1925;51.356;9.530;2022-10-19T14:11:40;6.17;;;1.33;;
3819;SDS011;1925;51.356;9.530;2022-10-19T14:16:33;5.03;;;1.30;;
3819;SDS011;1925;51.356;9.530;2022-10-19T14:18:59;1.10;;;0.83;;
3819;SDS011;1925;51.356;9.530;2022-10-19T14:21:33;2.23;;;1.17;;
3819;SDS011;1925;51.356;9.530;2022-10-19T14:24:01;1.43;;;1.10;;
3819;SDS011;1925;51.356;9.530;2022-10-19T14:26:27;3.60;;;1.63;;
3819;SDS011;1925;51.356;9.530;2022-10-19T14:28:55;3.17;;;1.47;;
3819;SDS011;1925;51.356;9.530;2022-10-19T14:31:23;1.57;;;1.10;;
3819;SDS011;1925;51.356;9.530;2022-10-19T14:33:51;3.13;;;1.40;;
3819;SDS011;1925;51.356;9.530;2022-10-19T14:36:20;1.87;;;1.33;;
3819;SDS011;1925;51.356;9.530;2022-10-19T14:38:48;3.00;;;1.33;;
3819;SDS011;1925;51.356;9.530;2022-10-19T14:41:18;1.80;;;1.10;;
3819;SDS011;1925;51.356;9.530;2022-10-19T14:43:45;3.33;;;1.30;;
3819;SDS011;1925;51.356;9.530;2022-10-19T14:46:13;3.27;;;1.17;;
3819;SDS011;1925;51.356;9.530;2022-10-19T14:48:40;4.23;;;1.40;;
3819;SDS011;1925;51.356;9.530;2022-10-19T14:53:48;2.73;;;1.70;;
3819;SDS011;1925;51.356;9.530;2022-10-19T14:56:16;1.30;;;1.17;;
3819;SDS011;1925;51.356;9.530;2022-10-19T14:58:45;3.27;;;0.97;;
3819;SDS011;1925;51.356;9.530;2022-10-19T15:01:14;4.17;;;1.50;;
3819;SDS011;1925;51.356;9.530;2022-10-19T15:03:41;3.20;;;1.20;;
3819;SDS011;1925;51.356;9.530;2022-10-19T15:06:12;2.47;;;1.23;;
3819;SDS011;1925;51.356;9.530;2022-10-19T15:08:40;1.13;;;1.03;;
3819;SDS011;1925;51.356;9.530;2022-10-19T15:11:08;1.50;;;1.10;;
3819;SDS011;1925;51.356;9.530;2022-10-19T15:13:45;3.10;;;1.20;;
3819;SDS011;1925;51.356;9.530;2022-10-19T15:19:01;4.40;;;1.33;;
3819;SDS011;1925;51.356;9.530;2022-10-19T15:21:27;4.17;;;1.10;;
3819;SDS011;1925;51.356;9.530;2022-10-19T15:23:54;3.17;;;1.80;;
3819;SDS011;1925;51.356;9.530;2022-10-19T15:26:30;5.30;;;1.30;;
3819;SDS011;1925;51.356;9.530;2022-10-19T15:29:09;2.03;;;1.50;;
3819;SDS011;1925;51.356;9.530;2022-10-19T15:31:36;2.70;;;1.13;;
3819;SDS011;1925;51.356;9.530;2022-10-19T15:34:02;2.60;;;1.40;;
3819;SDS011;1925;51.356;9.530;2022-10-19T15:36:29;2.13;;;1.53;;
3819;SDS011;1925;51.356;9.530;2022-10-19T15:41:26;3.50;;;1.50;;
3819;SDS011;1925;51.356;9.530;2022-10-19T15:44:02;1.20;;;0.93;;
3819;SDS011;1925;51.356;9.530;2022-10-19T15:46:32;3.37;;;1.30;;
3819;SDS011;1925;51.356;9.530;2022-10-19T15:49:00;1.63;;;1.47;;
3819;SDS011;1925;51.356;9.530;2022-10-19T15:56:20;1.63;;;1.43;;
3819;SDS011;1925;51.356;9.530;2022-10-19T15:58:50;2.60;;;1.50;;
3819;SDS011;1925;51.356;9.530;2022-10-19T16:01:17;2.60;;;1.50;;
3819;SDS011;1925;51.356;9.530;2022-10-19T16:03:44;1.57;;;1.43;;
3819;SDS011;1925;51.356;9.530;2022-10-19T16:06:10;3.70;;;1.50;;
3819;SDS011;1925;51.356;9.530;2022-10-19T16:08:36;2.30;;;1.30;;
3819;SDS011;1925;51.356;9.530;2022-10-19T16:11:02;1.77;;;1.67;;
3819;SDS011;1925;51.356;9.530;2022-10-19T16:13:29;3.50;;;2.13;;
3819;SDS011;1925;51.356;9.530;2022-10-19T16:15:59;1.40;;;1.30;;
3819;SDS011;1925;51.356;9.530;2022-10-19T16:18:28;2.10;;;1.30;;
3819;SDS011;1925;51.356;9.530;2022-10-19T16:20:54;4.73;;;1.20;;
3819;SDS011;1925;51.356;9.530;2022-10-19T16:23:20;2.30;;;1.33;;
3819;SDS011;1925;51.356;9.530;2022-10-19T16:25:46;6.83;;;2.50;;
3819;SDS011;1925;51.356;9.530;2022-10-19T16:28:12;10.13;;;2.17;;
3819;SDS011;1925;51.356;9.530;2022-10-19T16:30:38;2.47;;;1.73;;
3819;SDS011;1925;51.356;9.530;2022-10-19T16:33:04;3.77;;;1.87;;
3819;SDS011;1925;51.356;9.530;2022-10-19T16:35:30;4.13;;;2.07;;
3819;SDS011;1925;51.356;9.530;2022-10-19T16:37:56;3.83;;;1.73;;
3819;SDS011;1925;51.356;9.530;2022-10-19T16:40:23;3.20;;;1.85;;
3819;SDS011;1925;51.356;9.530;2022-10-19T16:42:49;1.60;;;1.23;;
3819;SDS011;1925;51.356;9.530;2022-10-19T16:45:15;1.20;;;1.10;;
3819;SDS011;1925;51.356;9.530;2022-10-19T16:47:41;2.70;;;1.30;;
3819;SDS011;1925;51.356;9.530;2022-10-19T16:50:09;1.73;;;1.63;;
3819;SDS011;1925;51.356;9.530;2022-10-19T16:52:35;1.85;;;1.60;;
3819;SDS011;1925;51.356;9.530;2022-10-19T16:55:01;3.40;;;1.73;;
3819;SDS011;1925;51.356;9.530;2022-10-19T16:57:27;4.23;;;1.30;;
3819;SDS011;1925;51.356;9.530;2022-10-19T16:59:53;2.00;;;1.20;;
3819;SDS011;1925;51.356;9.530;2022-10-19T17:02:20;2.70;;;1.37;;
3819;SDS011;1925;51.356;9.530;2022-10-19T17:04:46;2.87;;;2.40;;
3819;SDS011;1925;51.356;9.530;2022-10-19T17:07:12;2.03;;;1.27;;
3819;SDS011;1925;51.356;9.530;2022-10-19T17:09:38;4.83;;;1.57;;
3819;SDS011;1925;51.356;9.530;2022-10-19T17:12:04;2.38;;;1.08;;
3819;SDS011;1925;51.356;9.530;2022-10-19T17:14:30;2.10;;;1.50;;
3819;SDS011;1925;51.356;9.530;2022-10-19T17:16:56;2.15;;;1.10;;
3819;SDS011;1925;51.356;9.530;2022-10-19T17:19:22;3.20;;;1.30;;
3819;SDS011;1925;51.356;9.530;2022-10-19T17:21:49;4.75;;;2.17;;
3819;SDS011;1925;51.356;9.530;2022-10-19T17:24:16;2.33;;;1.35;;
3819;SDS011;1925;51.356;9.530;2022-10-19T17:26:43;2.25;;;1.35;;
3819;SDS011;1925;51.356;9.530;2022-10-19T17:29:09;2.75;;;1.63;;
3819;SDS011;1925;51.356;9.530;2022-10-19T17:31:36;4.50;;;1.50;;
3819;SDS011;1925;51.356;9.530;2022-10-19T17:34:02;3.15;;;1.30;;
3819;SDS011;1925;51.356;9.530;2022-10-19T17:36:34;4.85;;;1.33;;
3819;SDS011;1925;51.356;9.530;2022-10-19T17:39:02;6.70;;;1.70;;
3819;SDS011;1925;51.356;9.530;2022-10-19T17:41:28;3.90;;;1.42;;
3819;SDS011;1925;51.356;9.530;2022-10-19T17:43:55;1.50;;;1.40;;
3819;SDS011;1925;51.356;9.530;2022-10-19T17:46:22;3.47;;;1.70;;
3819;SDS011;1925;51.356;9.530;2022-10-19T17:48:49;3.30;;;1.60;;
3819;SDS011;1925;51.356;9.530;2022-10-19T17:51:16;1.90;;;0.95;;
3819;SDS011;1925;51.356;9.530;2022-10-19T17:53:42;4.38;;;1.65;;
3819;SDS011;1925;51.356;9.530;2022-10-19T17:56:10;7.05;;;1.58;;
3819;SDS011;1925;51.356;9.530;2022-10-19T17:58:36;5.28;;;2.03;;
3819;SDS011;1925;51.356;9.530;2022-10-19T18:01:02;5.40;;;4.10;;
3819;SDS011;1925;51.356;9.530;2022-10-19T18:03:30;5.15;;;2.97;;
3819;SDS011;1925;51.356;9.530;2022-10-19T18:06:01;6.18;;;5.20;;
3819;SDS011;1925;51.356;9.530;2022-10-19T18:08:28;5.90;;;5.05;;
3819;SDS011;1925;51.356;9.530;2022-10-19T18:10:58;4.85;;;3.40;;